To NAV CANADA Home Page Login to a new session Search on AWWS site Feedback and Comments Disclaimer Vers la page française équivalente Tips FAQ What's new on the site To the Forecasts and Observations / NOTAM section To "File a Flight Plan" website Publications and other links Update of the User's profile FIC Telephone Numbers My Weather Data Folder Route Weather Data Regional Weather Data Local Weather Data To the Forecasts and Observations / NOTAM section
Request Generated 04/24/2014 at 03:54:26 UTC . Weather information available at that time is displayed.

METAR/TAF

CLYDE RIVER/NU    (show WxCam)

METAR CYCY 240300Z AUTO VRB02KT 9SM CLR M21/M24 A3006 RMK SLP182=
METAR CYCY 240200Z AUTO 22002KT 9SM CLR M18/M21 A3005 RMK SLP180=
METAR CYCY 240100Z AUTO 29003KT 9SM CLR M18/M22 A3004 RMK SLP178=

TAF CYCY 240038Z 2401/2413 VRB03KT P6SM SKC
RMK FCST BASED ON AUTO OBS. NXT FCST BY 240700Z=
Your time UTC time
Weather data provided by Environment Canada and NAV CANADA